createdAt,value
2018-11-22T00:04:26.449Z,101257.41
2018-11-22T00:09:49.046Z,101257.56
2018-11-22T00:14:52.597Z,101263.92
2018-11-22T00:19:56.449Z,101260.70
2018-11-22T00:25:00.659Z,101260.42
2018-11-22T00:30:16.044Z,101262.59
2018-11-22T00:35:20.096Z,101260.37
2018-11-22T00:40:25.239Z,101260.75
2018-11-22T00:45:47.695Z,101261.73
2018-11-22T00:50:51.145Z,101256.02
2018-11-22T00:55:54.602Z,101262.64
2018-11-22T01:00:58.298Z,101258.83
2018-11-22T01:06:01.715Z,101265.11
2018-11-22T01:11:05.648Z,101260.31
2018-11-22T01:16:09.081Z,101264.58
2018-11-22T01:21:12.473Z,101255.28
2018-11-22T01:26:16.161Z,101256.53
2018-11-22T01:31:38.664Z,101260.72
2018-11-22T01:36:42.123Z,101256.41
2018-11-22T01:41:45.583Z,101256.45
2018-11-22T01:46:48.993Z,101255.16
2018-11-22T01:51:52.412Z,101256.23
2018-11-22T01:56:55.797Z,101255.10
2018-11-22T02:01:59.246Z,101253.73
2018-11-22T02:07:02.824Z,101258.05
2018-11-22T02:12:25.418Z,101257.67
2018-11-22T02:17:28.879Z,101250.75
2018-11-22T02:22:32.256Z,101256.84
2018-11-22T02:27:35.924Z,101264.82
2018-11-22T02:32:39.551Z,101265.77
2018-11-22T02:37:43.226Z,101262.17
2018-11-22T02:42:47.262Z,101260.51
2018-11-22T02:47:50.700Z,101258.88
2018-11-22T02:52:54.865Z,101255.73
2018-11-22T02:57:58.219Z,101262.25
2018-11-22T03:03:21.059Z,101261.80
2018-11-22T03:08:24.617Z,101256.91
2018-11-22T03:13:27.982Z,101253.95
2018-11-22T03:18:31.359Z,101257.40
2018-11-22T03:23:34.828Z,101259.18
2018-11-22T03:28:38.336Z,101249.88
2018-11-22T03:33:41.746Z,101249.70
2018-11-22T03:39:05.707Z,101250.75
2018-11-22T03:44:09.190Z,101251.38
2018-11-22T03:49:12.805Z,101246.70
2018-11-22T03:54:35.512Z,101251.38
2018-11-22T03:59:38.878Z,101252.53
2018-11-22T04:04:42.398Z,101249.00
2018-11-22T04:15:10.831Z,101257.66
2018-11-22T04:20:33.388Z,101255.84
2018-11-22T04:25:36.857Z,101255.16
2018-11-22T04:30:40.244Z,101254.25
2018-11-22T04:35:43.618Z,101245.75
2018-11-22T04:40:47.489Z,101254.25
2018-11-22T04:46:09.955Z,101247.67
2018-11-22T04:51:13.433Z,101258.69
2018-11-22T04:56:16.915Z,101259.14
2018-11-22T05:01:20.290Z,101253.27
2018-11-22T05:06:23.711Z,101251.68
2018-11-22T05:11:46.161Z,101257.73
2018-11-22T05:16:49.632Z,101253.05
2018-11-22T05:21:53.093Z,101251.27
2018-11-22T05:27:15.707Z,101242.16
2018-11-22T05:32:19.357Z,101243.67
2018-11-22T05:37:22.783Z,101239.70
2018-11-22T05:42:26.170Z,101240.90
2018-11-22T05:47:29.580Z,101242.64
2018-11-22T05:57:42.191Z,101237.13
2018-11-22T06:02:45.640Z,101243.14
2018-11-22T06:07:49.040Z,101244.13
2018-11-22T06:12:53.247Z,101248.02
2018-11-22T06:17:57.849Z,101248.62
2018-11-22T06:23:01.404Z,101247.76
2018-11-22T06:28:23.923Z,101252.14
2018-11-22T06:33:27.770Z,101251.23
2018-11-22T06:38:31.318Z,101243.09
2018-11-22T06:43:34.857Z,101243.14
2018-11-22T06:48:38.241Z,101251.66
2018-11-22T06:53:41.743Z,101245.95
2018-11-22T06:59:05.224Z,101250.33
2018-11-22T07:14:36.298Z,101243.75
2018-11-22T07:19:59.201Z,101247.91
2018-11-22T07:25:02.848Z,101258.69
2018-11-22T07:30:48.816Z,101251.47
2018-11-22T07:51:25.981Z,101255.75
2018-11-22T07:56:29.388Z,101258.50
2018-11-22T08:01:51.842Z,101258.36
2018-11-22T08:12:26.027Z,101255.67
2018-11-22T08:17:45.781Z,101257.42
2018-11-22T08:23:08.818Z,101259.53
2018-11-22T08:28:15.306Z,101266.08
2018-11-22T08:33:38.067Z,101265.97
2018-11-22T08:39:00.534Z,101266.34
2018-11-22T08:49:28.364Z,101266.16
2018-11-22T08:54:37.502Z,101274.89
2018-11-22T09:00:00.283Z,101271.33
2018-11-22T09:10:45.302Z,101264.78
2018-11-22T09:16:07.792Z,101273.34
2018-11-22T09:21:11.270Z,101278.30
2018-11-22T09:26:16.153Z,101270.39
2018-11-22T09:31:18.120Z,101277.23
2018-11-22T09:36:40.840Z,101281.63
2018-11-22T09:41:44.313Z,101273.38
2018-11-22T09:57:45.323Z,101271.02
2018-11-22T10:03:15.604Z,101281.97
2018-11-22T10:08:38.358Z,101272.43
2018-11-22T10:14:01.202Z,101267.59
2018-11-22T10:24:19.609Z,101276.40
2018-11-22T10:29:42.269Z,101270.20
2018-11-22T10:35:06.418Z,101270.27
2018-11-22T10:40:16.231Z,101269.99
2018-11-22T10:45:21.154Z,101273.78
2018-11-22T10:50:37.888Z,101274.84
2018-11-22T10:55:42.925Z,101278.04
2018-11-22T11:01:05.375Z,101269.06
2018-11-22T11:06:27.909Z,101273.97
2018-11-22T11:16:49.841Z,101264.88
2018-11-22T11:22:12.635Z,101266.27
2018-11-22T11:27:16.112Z,101260.71
2018-11-22T11:32:38.889Z,101252.20
2018-11-22T11:43:17.757Z,101255.14
2018-11-22T11:48:40.236Z,101252.92
2018-11-22T11:59:12.595Z,101245.19
2018-11-22T12:04:40.481Z,101243.22
2018-11-22T12:14:58.742Z,101228.98
2018-11-22T12:20:21.918Z,101224.98
2018-11-22T12:25:26.481Z,101231.52
2018-11-22T12:31:08.666Z,101221.83
2018-11-22T12:36:31.203Z,101229.95
2018-11-22T12:41:53.690Z,101224.56
2018-11-22T12:52:12.288Z,101216.77
2018-11-22T12:57:15.711Z,101218.34
2018-11-22T13:07:28.630Z,101208.94
2018-11-22T13:18:13.632Z,101208.42
2018-11-22T13:23:39.382Z,101202.14
2018-11-22T13:29:01.844Z,101206.36
2018-11-22T13:34:05.475Z,101199.70
2018-11-22T13:44:37.152Z,101204.62
2018-11-22T13:49:59.830Z,101204.03
2018-11-22T14:00:25.374Z,101203.64
2018-11-22T14:05:45.666Z,101201.05
2018-11-22T14:11:14.030Z,101198.95
2018-11-22T14:26:45.142Z,101188.00
2018-11-22T14:36:57.616Z,101192.85
2018-11-22T14:42:20.365Z,101193.86
2018-11-22T14:47:23.781Z,101195.60
2018-11-22T14:52:46.223Z,101198.98
2018-11-22T15:03:05.206Z,101189.97
2018-11-22T15:08:27.958Z,101195.86
2018-11-22T15:13:31.590Z,101190.97
2018-11-22T15:18:35.056Z,101193.48
2018-11-22T15:23:57.824Z,101194.41
2018-11-22T15:29:01.303Z,101194.06
2018-11-22T15:34:23.778Z,101200.38
2018-11-22T15:39:46.974Z,101208.94
2018-11-22T15:44:50.222Z,101209.45
2018-11-22T15:49:53.632Z,101206.05
2018-11-22T15:54:57.169Z,101208.62
2018-11-22T16:00:26.944Z,101208.62
2018-11-22T16:05:31.074Z,101207.33
2018-11-22T16:10:53.994Z,101194.93
2018-11-22T16:15:57.375Z,101199.25
2018-11-22T16:21:00.803Z,101198.31
2018-11-22T16:26:04.193Z,101202.14
2018-11-22T16:31:26.978Z,101203.95
2018-11-22T16:36:30.458Z,101196.28
2018-11-22T16:41:53.220Z,101192.80
2018-11-22T16:46:56.720Z,101192.00
2018-11-22T16:52:00.100Z,101187.65
2018-11-22T16:57:03.533Z,101190.38
2018-11-22T17:07:16.343Z,101198.24
2018-11-22T17:12:40.193Z,101191.22
2018-11-22T17:17:44.435Z,101189.00
2018-11-22T17:22:48.586Z,101193.64
2018-11-22T17:27:53.485Z,101188.00
2018-11-22T17:32:56.834Z,101176.63
2018-11-22T17:38:01.373Z,101184.66
2018-11-22T17:43:05.041Z,101181.78
2018-11-22T17:48:08.732Z,101183.08
2018-11-22T17:53:12.665Z,101189.13
2018-11-22T17:58:16.341Z,101186.39
2018-11-22T18:03:20.189Z,101188.75
2018-11-22T18:08:23.600Z,101192.19
2018-11-22T18:13:27.218Z,101184.66
2018-11-22T18:18:30.939Z,101191.87
2018-11-22T18:23:34.360Z,101199.05
2018-11-22T18:28:37.702Z,101204.20
2018-11-22T18:34:00.241Z,101205.77
2018-11-22T18:39:04.251Z,101208.56
2018-11-22T18:44:07.709Z,101208.08
2018-11-22T18:49:11.095Z,101213.30
2018-11-22T18:54:33.664Z,101209.81
2018-11-22T19:04:53.139Z,101209.67
2018-11-22T19:15:07.950Z,101203.80
2018-11-22T19:20:52.514Z,101205.19
2018-11-22T19:26:15.055Z,101203.73
2018-11-22T19:36:33.280Z,101209.72
2018-11-22T19:41:37.105Z,101209.05
2018-11-22T19:46:40.835Z,101204.94
2018-11-22T19:51:44.335Z,101206.59
2018-11-22T19:57:06.909Z,101205.31
2018-11-22T20:07:20.507Z,101209.52
2018-11-22T20:12:23.939Z,101217.42
2018-11-22T20:17:27.497Z,101218.05
2018-11-22T20:22:31.029Z,101221.00
2018-11-22T20:27:34.486Z,101214.80
2018-11-22T20:48:20.283Z,101217.96
2018-11-22T20:53:24.689Z,101222.72
2018-11-22T21:03:57.174Z,101217.84
2018-11-22T21:14:09.682Z,101223.48
2018-11-22T21:19:32.012Z,101213.79
2018-11-22T21:24:54.889Z,101217.11
2018-11-22T21:30:22.941Z,101219.80
2018-11-22T21:40:38.875Z,101230.28
2018-11-22T21:45:42.378Z,101230.00
2018-11-22T21:50:45.752Z,101225.35
2018-11-22T21:55:49.362Z,101233.93
2018-11-22T22:00:52.842Z,101236.70
2018-11-22T22:05:56.249Z,101220.20
2018-11-22T22:16:08.711Z,101211.88
2018-11-22T22:21:31.144Z,101211.55
2018-11-22T22:26:53.640Z,101200.87
2018-11-22T22:31:57.533Z,101201.66
2018-11-22T22:37:19.987Z,101193.13
2018-11-22T22:42:42.485Z,101197.22
2018-11-22T22:52:56.818Z,101194.11
2018-11-22T22:58:00.390Z,101195.64
2018-11-22T23:03:23.035Z,101193.70
2018-11-22T23:08:45.553Z,101193.58
2018-11-22T23:13:49.028Z,101188.19
2018-11-22T23:19:11.474Z,101187.11
2018-11-22T23:24:15.067Z,101189.92
2018-11-22T23:29:37.516Z,101186.81
2018-11-22T23:45:06.558Z,101171.03
2018-11-22T23:50:30.679Z,101166.93
2018-11-22T23:55:34.244Z,101175.33
